sensor_id;sensor_type;location;lat;lon;timestamp;P1;durP1;ratioP1;P2;durP2;ratioP2
9767;SDS011;4923;52.520;13.494;2024-03-08T00:00:27;20.20;;;10.50;;
9767;SDS011;4923;52.520;13.494;2024-03-08T00:03:14;18.95;;;10.18;;
9767;SDS011;4923;52.520;13.494;2024-03-08T00:06:01;18.30;;;10.60;;
9767;SDS011;4923;52.520;13.494;2024-03-08T00:08:50;23.90;;;11.90;;
9767;SDS011;4923;52.520;13.494;2024-03-08T00:11:37;19.95;;;10.27;;
9767;SDS011;4923;52.520;13.494;2024-03-08T00:14:25;15.98;;;9.82;;
9767;SDS011;4923;52.520;13.494;2024-03-08T00:17:13;16.77;;;9.48;;
9767;SDS011;4923;52.520;13.494;2024-03-08T00:20:01;16.48;;;9.05;;
9767;SDS011;4923;52.520;13.494;2024-03-08T00:22:48;15.80;;;10.30;;
9767;SDS011;4923;52.520;13.494;2024-03-08T00:25:36;15.52;;;10.25;;
9767;SDS011;4923;52.520;13.494;2024-03-08T00:28:24;20.38;;;10.52;;
9767;SDS011;4923;52.520;13.494;2024-03-08T00:31:14;18.15;;;9.90;;
9767;SDS011;4923;52.520;13.494;2024-03-08T00:34:02;16.38;;;9.48;;
9767;SDS011;4923;52.520;13.494;2024-03-08T00:36:49;19.35;;;9.90;;
9767;SDS011;4923;52.520;13.494;2024-03-08T00:39:37;18.13;;;10.18;;
9767;SDS011;4923;52.520;13.494;2024-03-08T00:42:24;20.10;;;9.32;;
9767;SDS011;4923;52.520;13.494;2024-03-08T00:45:11;16.65;;;9.75;;
9767;SDS011;4923;52.520;13.494;2024-03-08T00:47:59;15.48;;;9.88;;
9767;SDS011;4923;52.520;13.494;2024-03-08T00:50:46;21.83;;;11.07;;
9767;SDS011;4923;52.520;13.494;2024-03-08T00:53:33;18.52;;;10.45;;
9767;SDS011;4923;52.520;13.494;2024-03-08T00:56:20;17.23;;;9.10;;
9767;SDS011;4923;52.520;13.494;2024-03-08T00:59:07;20.20;;;11.43;;
9767;SDS011;4923;52.520;13.494;2024-03-08T01:01:54;22.23;;;9.93;;
9767;SDS011;4923;52.520;13.494;2024-03-08T01:04:43;15.82;;;9.43;;
9767;SDS011;4923;52.520;13.494;2024-03-08T01:07:30;19.80;;;10.93;;
9767;SDS011;4923;52.520;13.494;2024-03-08T01:10:17;21.38;;;11.02;;
9767;SDS011;4923;52.520;13.494;2024-03-08T01:13:04;14.45;;;9.45;;
9767;SDS011;4923;52.520;13.494;2024-03-08T01:15:51;15.43;;;9.27;;
9767;SDS011;4923;52.520;13.494;2024-03-08T01:18:37;16.48;;;9.63;;
9767;SDS011;4923;52.520;13.494;2024-03-08T01:21:26;21.00;;;10.63;;
9767;SDS011;4923;52.520;13.494;2024-03-08T01:24:13;18.90;;;10.45;;
9767;SDS011;4923;52.520;13.494;2024-03-08T01:26:59;18.50;;;9.88;;
9767;SDS011;4923;52.520;13.494;2024-03-08T01:29:47;25.15;;;10.95;;
9767;SDS011;4923;52.520;13.494;2024-03-08T01:32:34;18.45;;;9.88;;
9767;SDS011;4923;52.520;13.494;2024-03-08T01:35:22;17.73;;;8.80;;
9767;SDS011;4923;52.520;13.494;2024-03-08T01:38:10;19.95;;;10.10;;
9767;SDS011;4923;52.520;13.494;2024-03-08T01:40:57;22.45;;;10.88;;
9767;SDS011;4923;52.520;13.494;2024-03-08T01:43:43;17.10;;;9.70;;
9767;SDS011;4923;52.520;13.494;2024-03-08T01:46:31;21.83;;;9.80;;
9767;SDS011;4923;52.520;13.494;2024-03-08T01:49:18;22.65;;;12.02;;
9767;SDS011;4923;52.520;13.494;2024-03-08T01:52:06;17.45;;;10.35;;
9767;SDS011;4923;52.520;13.494;2024-03-08T01:54:54;21.77;;;10.13;;
9767;SDS011;4923;52.520;13.494;2024-03-08T01:57:41;22.52;;;9.48;;
9767;SDS011;4923;52.520;13.494;2024-03-08T02:00:29;18.88;;;9.80;;
9767;SDS011;4923;52.520;13.494;2024-03-08T02:03:18;21.48;;;10.32;;
9767;SDS011;4923;52.520;13.494;2024-03-08T02:06:05;21.15;;;10.27;;
9767;SDS011;4923;52.520;13.494;2024-03-08T02:08:55;20.98;;;10.57;;
9767;SDS011;4923;52.520;13.494;2024-03-08T02:11:43;14.02;;;9.50;;
9767;SDS011;4923;52.520;13.494;2024-03-08T02:14:31;19.55;;;11.45;;
9767;SDS011;4923;52.520;13.494;2024-03-08T02:17:18;18.30;;;10.70;;
9767;SDS011;4923;52.520;13.494;2024-03-08T02:20:05;18.95;;;9.75;;
9767;SDS011;4923;52.520;13.494;2024-03-08T02:22:55;18.00;;;10.93;;
9767;SDS011;4923;52.520;13.494;2024-03-08T02:25:42;18.95;;;9.85;;
9767;SDS011;4923;52.520;13.494;2024-03-08T02:28:29;23.45;;;11.52;;
9767;SDS011;4923;52.520;13.494;2024-03-08T02:31:16;19.70;;;11.82;;
9767;SDS011;4923;52.520;13.494;2024-03-08T02:34:03;32.58;;;11.65;;
9767;SDS011;4923;52.520;13.494;2024-03-08T02:36:50;19.25;;;11.13;;
9767;SDS011;4923;52.520;13.494;2024-03-08T02:39:38;18.77;;;10.00;;
9767;SDS011;4923;52.520;13.494;2024-03-08T02:42:26;18.15;;;10.32;;
9767;SDS011;4923;52.520;13.494;2024-03-08T02:45:13;26.10;;;10.52;;
9767;SDS011;4923;52.520;13.494;2024-03-08T02:48:00;19.05;;;10.25;;
9767;SDS011;4923;52.520;13.494;2024-03-08T02:50:47;19.55;;;11.13;;
9767;SDS011;4923;52.520;13.494;2024-03-08T02:53:36;16.17;;;9.63;;
9767;SDS011;4923;52.520;13.494;2024-03-08T02:56:24;18.13;;;10.50;;
9767;SDS011;4923;52.520;13.494;2024-03-08T02:59:12;24.83;;;12.23;;
9767;SDS011;4923;52.520;13.494;2024-03-08T03:01:59;25.33;;;11.98;;
9767;SDS011;4923;52.520;13.494;2024-03-08T03:04:46;22.05;;;12.25;;
9767;SDS011;4923;52.520;13.494;2024-03-08T03:07:33;18.33;;;10.70;;
9767;SDS011;4923;52.520;13.494;2024-03-08T03:10:20;19.73;;;11.73;;
9767;SDS011;4923;52.520;13.494;2024-03-08T03:13:09;22.23;;;11.20;;
9767;SDS011;4923;52.520;13.494;2024-03-08T03:15:56;24.05;;;11.65;;
9767;SDS011;4923;52.520;13.494;2024-03-08T03:18:44;20.92;;;12.23;;
9767;SDS011;4923;52.520;13.494;2024-03-08T03:21:31;27.27;;;12.85;;
9767;SDS011;4923;52.520;13.494;2024-03-08T03:24:18;23.52;;;12.07;;
9767;SDS011;4923;52.520;13.494;2024-03-08T03:27:06;23.65;;;11.70;;
9767;SDS011;4923;52.520;13.494;2024-03-08T03:29:57;25.45;;;12.77;;
9767;SDS011;4923;52.520;13.494;2024-03-08T03:32:44;19.88;;;11.10;;
9767;SDS011;4923;52.520;13.494;2024-03-08T03:35:32;23.52;;;11.55;;
9767;SDS011;4923;52.520;13.494;2024-03-08T03:38:19;21.75;;;11.80;;
9767;SDS011;4923;52.520;13.494;2024-03-08T03:41:08;24.23;;;13.02;;
9767;SDS011;4923;52.520;13.494;2024-03-08T03:43:56;24.23;;;11.70;;
9767;SDS011;4923;52.520;13.494;2024-03-08T03:46:45;25.17;;;13.05;;
9767;SDS011;4923;52.520;13.494;2024-03-08T03:49:32;28.73;;;12.77;;
9767;SDS011;4923;52.520;13.494;2024-03-08T03:52:19;22.08;;;12.32;;
9767;SDS011;4923;52.520;13.494;2024-03-08T03:55:07;26.00;;;12.73;;
9767;SDS011;4923;52.520;13.494;2024-03-08T03:57:55;22.75;;;13.10;;
9767;SDS011;4923;52.520;13.494;2024-03-08T04:00:44;21.85;;;12.10;;
9767;SDS011;4923;52.520;13.494;2024-03-08T04:03:32;21.13;;;12.30;;
9767;SDS011;4923;52.520;13.494;2024-03-08T04:06:19;24.65;;;12.35;;
9767;SDS011;4923;52.520;13.494;2024-03-08T04:09:06;24.65;;;13.35;;
9767;SDS011;4923;52.520;13.494;2024-03-08T04:11:53;25.13;;;13.88;;
9767;SDS011;4923;52.520;13.494;2024-03-08T04:14:41;22.80;;;12.23;;
9767;SDS011;4923;52.520;13.494;2024-03-08T04:17:28;22.05;;;10.90;;
9767;SDS011;4923;52.520;13.494;2024-03-08T04:20:17;23.75;;;12.70;;
9767;SDS011;4923;52.520;13.494;2024-03-08T04:23:04;23.13;;;12.70;;
9767;SDS011;4923;52.520;13.494;2024-03-08T04:25:50;21.65;;;12.07;;
9767;SDS011;4923;52.520;13.494;2024-03-08T04:28:37;40.15;;;12.45;;
9767;SDS011;4923;52.520;13.494;2024-03-08T04:31:25;30.77;;;12.90;;
9767;SDS011;4923;52.520;13.494;2024-03-08T04:34:12;21.67;;;12.20;;
9767;SDS011;4923;52.520;13.494;2024-03-08T04:37:01;21.58;;;12.73;;
9767;SDS011;4923;52.520;13.494;2024-03-08T04:39:50;32.58;;;15.23;;
9767;SDS011;4923;52.520;13.494;2024-03-08T04:42:37;24.60;;;13.40;;
9767;SDS011;4923;52.520;13.494;2024-03-08T04:45:25;25.33;;;12.50;;
9767;SDS011;4923;52.520;13.494;2024-03-08T04:48:12;28.05;;;12.68;;
9767;SDS011;4923;52.520;13.494;2024-03-08T04:50:59;29.92;;;13.63;;
9767;SDS011;4923;52.520;13.494;2024-03-08T04:53:47;24.92;;;13.27;;
9767;SDS011;4923;52.520;13.494;2024-03-08T04:56:35;30.38;;;12.63;;
9767;SDS011;4923;52.520;13.494;2024-03-08T04:59:22;27.95;;;13.60;;
9767;SDS011;4923;52.520;13.494;2024-03-08T05:02:09;24.52;;;11.70;;
9767;SDS011;4923;52.520;13.494;2024-03-08T05:04:56;25.42;;;13.18;;
9767;SDS011;4923;52.520;13.494;2024-03-08T05:07:43;27.85;;;13.40;;
9767;SDS011;4923;52.520;13.494;2024-03-08T05:10:32;26.55;;;14.57;;
9767;SDS011;4923;52.520;13.494;2024-03-08T05:13:19;31.05;;;12.70;;
9767;SDS011;4923;52.520;13.494;2024-03-08T05:16:06;26.02;;;13.50;;
9767;SDS011;4923;52.520;13.494;2024-03-08T05:18:53;21.40;;;12.35;;
9767;SDS011;4923;52.520;13.494;2024-03-08T05:21:42;34.78;;;15.20;;
9767;SDS011;4923;52.520;13.494;2024-03-08T05:24:29;27.75;;;13.88;;
9767;SDS011;4923;52.520;13.494;2024-03-08T05:27:18;30.45;;;12.45;;
9767;SDS011;4923;52.520;13.494;2024-03-08T05:30:05;24.13;;;13.13;;
9767;SDS011;4923;52.520;13.494;2024-03-08T05:32:53;28.33;;;14.27;;
9767;SDS011;4923;52.520;13.494;2024-03-08T05:35:40;25.58;;;13.20;;
9767;SDS011;4923;52.520;13.494;2024-03-08T05:38:27;25.48;;;12.80;;
9767;SDS011;4923;52.520;13.494;2024-03-08T05:41:13;31.30;;;13.55;;
9767;SDS011;4923;52.520;13.494;2024-03-08T05:44:02;31.50;;;15.43;;
9767;SDS011;4923;52.520;13.494;2024-03-08T05:46:49;28.98;;;13.68;;
9767;SDS011;4923;52.520;13.494;2024-03-08T05:49:36;26.75;;;14.98;;
9767;SDS011;4923;52.520;13.494;2024-03-08T05:52:23;32.28;;;15.63;;
9767;SDS011;4923;52.520;13.494;2024-03-08T05:55:11;25.30;;;14.25;;
9767;SDS011;4923;52.520;13.494;2024-03-08T05:57:59;30.48;;;14.90;;
9767;SDS011;4923;52.520;13.494;2024-03-08T06:00:47;41.58;;;15.85;;
9767;SDS011;4923;52.520;13.494;2024-03-08T06:03:34;29.25;;;15.40;;
9767;SDS011;4923;52.520;13.494;2024-03-08T06:06:21;33.30;;;15.40;;
9767;SDS011;4923;52.520;13.494;2024-03-08T06:09:09;33.13;;;14.75;;
9767;SDS011;4923;52.520;13.494;2024-03-08T06:11:56;31.48;;;15.55;;
9767;SDS011;4923;52.520;13.494;2024-03-08T06:14:43;26.10;;;14.95;;
9767;SDS011;4923;52.520;13.494;2024-03-08T06:17:32;32.80;;;15.73;;
9767;SDS011;4923;52.520;13.494;2024-03-08T06:20:19;25.73;;;15.00;;
9767;SDS011;4923;52.520;13.494;2024-03-08T06:23:06;32.45;;;14.20;;
9767;SDS011;4923;52.520;13.494;2024-03-08T06:25:54;30.33;;;15.27;;
9767;SDS011;4923;52.520;13.494;2024-03-08T06:28:42;31.17;;;13.95;;
9767;SDS011;4923;52.520;13.494;2024-03-08T06:31:29;28.67;;;13.80;;
9767;SDS011;4923;52.520;13.494;2024-03-08T06:34:18;26.63;;;14.68;;
9767;SDS011;4923;52.520;13.494;2024-03-08T06:37:05;27.48;;;15.13;;
9767;SDS011;4923;52.520;13.494;2024-03-08T06:39:52;28.33;;;15.00;;
9767;SDS011;4923;52.520;13.494;2024-03-08T06:42:40;25.73;;;14.32;;
9767;SDS011;4923;52.520;13.494;2024-03-08T06:45:28;31.50;;;15.07;;
9767;SDS011;4923;52.520;13.494;2024-03-08T06:48:15;30.98;;;15.25;;
9767;SDS011;4923;52.520;13.494;2024-03-08T06:51:04;31.75;;;15.05;;
9767;SDS011;4923;52.520;13.494;2024-03-08T06:53:51;29.10;;;13.73;;
9767;SDS011;4923;52.520;13.494;2024-03-08T06:56:38;26.10;;;14.18;;
9767;SDS011;4923;52.520;13.494;2024-03-08T06:59:25;26.80;;;15.02;;
9767;SDS011;4923;52.520;13.494;2024-03-08T07:02:12;29.60;;;16.15;;
9767;SDS011;4923;52.520;13.494;2024-03-08T07:04:59;26.65;;;14.00;;
9767;SDS011;4923;52.520;13.494;2024-03-08T07:07:48;29.58;;;13.68;;
9767;SDS011;4923;52.520;13.494;2024-03-08T07:10:35;26.92;;;14.07;;
9767;SDS011;4923;52.520;13.494;2024-03-08T07:13:22;26.58;;;13.55;;
9767;SDS011;4923;52.520;13.494;2024-03-08T07:16:09;28.90;;;14.27;;
9767;SDS011;4923;52.520;13.494;2024-03-08T07:18:57;26.58;;;14.45;;
9767;SDS011;4923;52.520;13.494;2024-03-08T07:21:44;26.02;;;14.00;;
9767;SDS011;4923;52.520;13.494;2024-03-08T07:24:34;35.53;;;13.80;;
9767;SDS011;4923;52.520;13.494;2024-03-08T07:27:35;37.33;;;20.73;;
9767;SDS011;4923;52.520;13.494;2024-03-08T07:30:23;47.35;;;25.63;;
9767;SDS011;4923;52.520;13.494;2024-03-08T07:33:28;54.08;;;29.58;;
9767;SDS011;4923;52.520;13.494;2024-03-08T07:36:16;59.35;;;33.58;;
9767;SDS011;4923;52.520;13.494;2024-03-08T07:39:03;62.88;;;33.20;;
9767;SDS011;4923;52.520;13.494;2024-03-08T07:41:52;78.60;;;36.33;;
9767;SDS011;4923;52.520;13.494;2024-03-08T07:44:39;93.10;;;40.00;;
9767;SDS011;4923;52.520;13.494;2024-03-08T07:47:26;65.43;;;35.80;;
9767;SDS011;4923;52.520;13.494;2024-03-08T07:50:13;67.82;;;33.60;;
9767;SDS011;4923;52.520;13.494;2024-03-08T07:53:01;56.72;;;27.00;;
9767;SDS011;4923;52.520;13.494;2024-03-08T07:55:48;48.33;;;24.02;;
9767;SDS011;4923;52.520;13.494;2024-03-08T07:58:37;35.25;;;19.35;;
9767;SDS011;4923;52.520;13.494;2024-03-08T08:01:25;37.58;;;19.55;;
9767;SDS011;4923;52.520;13.494;2024-03-08T08:04:12;47.22;;;23.10;;
9767;SDS011;4923;52.520;13.494;2024-03-08T08:07:00;47.42;;;23.50;;
9767;SDS011;4923;52.520;13.494;2024-03-08T08:09:46;46.58;;;23.70;;
9767;SDS011;4923;52.520;13.494;2024-03-08T08:12:33;47.63;;;22.50;;
9767;SDS011;4923;52.520;13.494;2024-03-08T08:15:21;41.15;;;22.52;;
9767;SDS011;4923;52.520;13.494;2024-03-08T08:18:08;49.53;;;25.05;;
9767;SDS011;4923;52.520;13.494;2024-03-08T08:20:55;42.75;;;22.67;;
9767;SDS011;4923;52.520;13.494;2024-03-08T08:23:42;41.55;;;21.73;;
9767;SDS011;4923;52.520;13.494;2024-03-08T08:26:29;32.85;;;17.77;;
9767;SDS011;4923;52.520;13.494;2024-03-08T08:29:16;24.90;;;13.32;;
9767;SDS011;4923;52.520;13.494;2024-03-08T08:32:05;22.85;;;12.73;;
9767;SDS011;4923;52.520;13.494;2024-03-08T08:34:52;28.65;;;14.55;;
9767;SDS011;4923;52.520;13.494;2024-03-08T08:37:39;29.88;;;14.10;;
9767;SDS011;4923;52.520;13.494;2024-03-08T08:40:25;27.17;;;14.27;;
9767;SDS011;4923;52.520;13.494;2024-03-08T08:43:13;24.42;;;13.98;;
9767;SDS011;4923;52.520;13.494;2024-03-08T08:46:00;31.42;;;13.57;;
9767;SDS011;4923;52.520;13.494;2024-03-08T08:48:48;22.13;;;13.13;;
9767;SDS011;4923;52.520;13.494;2024-03-08T08:51:35;23.38;;;13.50;;
9767;SDS011;4923;52.520;13.494;2024-03-08T08:54:22;21.88;;;13.32;;
9767;SDS011;4923;52.520;13.494;2024-03-08T08:57:10;21.23;;;12.75;;
9767;SDS011;4923;52.520;13.494;2024-03-08T08:59:57;18.50;;;11.48;;
9767;SDS011;4923;52.520;13.494;2024-03-08T09:02:44;22.98;;;11.75;;
9767;SDS011;4923;52.520;13.494;2024-03-08T09:05:32;25.15;;;13.90;;
9767;SDS011;4923;52.520;13.494;2024-03-08T09:08:20;38.65;;;19.23;;
9767;SDS011;4923;52.520;13.494;2024-03-08T09:11:07;23.35;;;12.38;;
9767;SDS011;4923;52.520;13.494;2024-03-08T09:13:54;17.30;;;10.63;;
9767;SDS011;4923;52.520;13.494;2024-03-08T09:16:41;25.08;;;13.10;;
9767;SDS011;4923;52.520;13.494;2024-03-08T09:19:28;18.92;;;12.63;;
9767;SDS011;4923;52.520;13.494;2024-03-08T09:22:16;17.70;;;11.65;;
9767;SDS011;4923;52.520;13.494;2024-03-08T09:25:03;23.60;;;12.80;;
9767;SDS011;4923;52.520;13.494;2024-03-08T09:27:52;22.17;;;13.25;;
9767;SDS011;4923;52.520;13.494;2024-03-08T09:30:40;24.45;;;12.30;;
9767;SDS011;4923;52.520;13.494;2024-03-08T09:33:27;22.02;;;12.25;;
9767;SDS011;4923;52.520;13.494;2024-03-08T09:36:14;20.85;;;11.02;;
9767;SDS011;4923;52.520;13.494;2024-03-08T09:39:02;17.40;;;12.05;;
9767;SDS011;4923;52.520;13.494;2024-03-08T09:41:52;21.27;;;12.80;;
9767;SDS011;4923;52.520;13.494;2024-03-08T09:44:43;21.40;;;12.52;;
9767;SDS011;4923;52.520;13.494;2024-03-08T09:47:31;19.75;;;11.60;;
9767;SDS011;4923;52.520;13.494;2024-03-08T09:50:19;19.67;;;11.80;;
9767;SDS011;4923;52.520;13.494;2024-03-08T09:53:07;15.60;;;10.95;;
9767;SDS011;4923;52.520;13.494;2024-03-08T09:55:56;22.55;;;12.05;;
9767;SDS011;4923;52.520;13.494;2024-03-08T09:58:42;17.85;;;12.07;;
9767;SDS011;4923;52.520;13.494;2024-03-08T10:01:58;19.02;;;12.35;;
9767;SDS011;4923;52.520;13.494;2024-03-08T10:04:47;16.23;;;9.85;;
9767;SDS011;4923;52.520;13.494;2024-03-08T10:07:34;14.93;;;10.35;;
9767;SDS011;4923;52.520;13.494;2024-03-08T10:10:21;16.05;;;10.35;;
9767;SDS011;4923;52.520;13.494;2024-03-08T10:13:09;18.50;;;11.10;;
9767;SDS011;4923;52.520;13.494;2024-03-08T10:15:59;23.63;;;11.93;;
9767;SDS011;4923;52.520;13.494;2024-03-08T10:18:46;17.10;;;11.05;;
9767;SDS011;4923;52.520;13.494;2024-03-08T10:21:33;13.98;;;10.38;;
9767;SDS011;4923;52.520;13.494;2024-03-08T10:24:20;29.17;;;15.55;;
9767;SDS011;4923;52.520;13.494;2024-03-08T10:27:08;22.92;;;11.73;;
9767;SDS011;4923;52.520;13.494;2024-03-08T10:29:57;14.45;;;10.25;;
9767;SDS011;4923;52.520;13.494;2024-03-08T10:32:44;20.08;;;8.57;;
9767;SDS011;4923;52.520;13.494;2024-03-08T10:35:30;14.93;;;9.15;;
9767;SDS011;4923;52.520;13.494;2024-03-08T10:38:17;19.27;;;10.70;;
9767;SDS011;4923;52.520;13.494;2024-03-08T10:41:09;14.50;;;9.88;;
9767;SDS011;4923;52.520;13.494;2024-03-08T10:44:02;15.05;;;9.27;;
9767;SDS011;4923;52.520;13.494;2024-03-08T10:47:01;12.52;;;8.23;;
9767;SDS011;4923;52.520;13.494;2024-03-08T10:49:51;22.80;;;8.48;;
9767;SDS011;4923;52.520;13.494;2024-03-08T10:52:41;11.02;;;8.85;;
9767;SDS011;4923;52.520;13.494;2024-03-08T10:55:28;14.10;;;9.60;;
9767;SDS011;4923;52.520;13.494;2024-03-08T10:58:19;14.40;;;9.07;;
9767;SDS011;4923;52.520;13.494;2024-03-08T11:01:07;16.60;;;8.98;;
9767;SDS011;4923;52.520;13.494;2024-03-08T11:03:56;16.27;;;10.63;;
9767;SDS011;4923;52.520;13.494;2024-03-08T11:06:44;11.32;;;8.02;;
9767;SDS011;4923;52.520;13.494;2024-03-08T11:09:33;17.63;;;10.10;;
9767;SDS011;4923;52.520;13.494;2024-03-08T11:12:24;15.65;;;9.95;;
9767;SDS011;4923;52.520;13.494;2024-03-08T11:15:14;12.00;;;8.45;;
9767;SDS011;4923;52.520;13.494;2024-03-08T11:18:04;11.68;;;7.88;;
9767;SDS011;4923;52.520;13.494;2024-03-08T11:20:57;53.58;;;24.02;;
9767;SDS011;4923;52.520;13.494;2024-03-08T11:23:43;18.58;;;12.05;;
9767;SDS011;4923;52.520;13.494;2024-03-08T11:26:45;14.77;;;10.10;;
9767;SDS011;4923;52.520;13.494;2024-03-08T11:29:33;18.17;;;10.80;;
9767;SDS011;4923;52.520;13.494;2024-03-08T11:32:27;16.50;;;9.23;;
9767;SDS011;4923;52.520;13.494;2024-03-08T11:35:17;18.75;;;9.55;;
9767;SDS011;4923;52.520;13.494;2024-03-08T11:38:08;14.82;;;8.88;;
9767;SDS011;4923;52.520;13.494;2024-03-08T11:40:56;16.70;;;10.30;;
9767;SDS011;4923;52.520;13.494;2024-03-08T11:43:43;17.10;;;9.85;;
9767;SDS011;4923;52.520;13.494;2024-03-08T11:46:30;14.20;;;9.50;;
9767;SDS011;4923;52.520;13.494;2024-03-08T11:49:17;23.02;;;10.88;;
9767;SDS011;4923;52.520;13.494;2024-03-08T11:52:04;13.07;;;9.02;;
9767;SDS011;4923;52.520;13.494;2024-03-08T11:54:54;14.70;;;9.05;;
9767;SDS011;4923;52.520;13.494;2024-03-08T11:57:42;20.38;;;11.38;;
9767;SDS011;4923;52.520;13.494;2024-03-08T12:00:29;14.80;;;9.40;;
9767;SDS011;4923;52.520;13.494;2024-03-08T12:03:20;15.63;;;10.80;;
9767;SDS011;4923;52.520;13.494;2024-03-08T12:06:07;14.90;;;9.73;;
9767;SDS011;4923;52.520;13.494;2024-03-08T12:08:54;14.57;;;8.93;;
9767;SDS011;4923;52.520;13.494;2024-03-08T12:11:43;15.57;;;10.05;;
9767;SDS011;4923;52.520;13.494;2024-03-08T12:14:34;13.60;;;8.98;;
9767;SDS011;4923;52.520;13.494;2024-03-08T12:17:21;15.68;;;9.10;;
9767;SDS011;4923;52.520;13.494;2024-03-08T12:20:13;15.70;;;9.77;;
9767;SDS011;4923;52.520;13.494;2024-03-08T12:23:01;12.60;;;9.10;;
9767;SDS011;4923;52.520;13.494;2024-03-08T12:25:50;14.55;;;9.77;;
9767;SDS011;4923;52.520;13.494;2024-03-08T12:28:38;14.65;;;8.57;;
9767;SDS011;4923;52.520;13.494;2024-03-08T12:31:25;21.08;;;9.75;;
9767;SDS011;4923;52.520;13.494;2024-03-08T12:34:14;21.73;;;11.15;;
9767;SDS011;4923;52.520;13.494;2024-03-08T12:37:01;20.25;;;13.02;;
9767;SDS011;4923;52.520;13.494;2024-03-08T12:39:48;27.63;;;9.82;;
9767;SDS011;4923;52.520;13.494;2024-03-08T12:42:35;13.98;;;9.25;;
9767;SDS011;4923;52.520;13.494;2024-03-08T12:45:25;15.88;;;10.07;;
9767;SDS011;4923;52.520;13.494;2024-03-08T12:48:13;15.15;;;9.98;;
9767;SDS011;4923;52.520;13.494;2024-03-08T12:51:00;15.07;;;9.85;;
9767;SDS011;4923;52.520;13.494;2024-03-08T12:53:47;14.30;;;8.90;;
9767;SDS011;4923;52.520;13.494;2024-03-08T12:56:40;12.00;;;8.05;;
9767;SDS011;4923;52.520;13.494;2024-03-08T12:59:27;16.15;;;9.55;;
9767;SDS011;4923;52.520;13.494;2024-03-08T13:02:16;10.70;;;8.27;;
9767;SDS011;4923;52.520;13.494;2024-03-08T13:05:03;15.10;;;8.52;;
9767;SDS011;4923;52.520;13.494;2024-03-08T13:07:51;12.93;;;8.93;;
9767;SDS011;4923;52.520;13.494;2024-03-08T13:10:38;14.18;;;8.95;;
9767;SDS011;4923;52.520;13.494;2024-03-08T13:13:25;12.05;;;8.02;;
9767;SDS011;4923;52.520;13.494;2024-03-08T13:16:12;11.48;;;8.65;;
9767;SDS011;4923;52.520;13.494;2024-03-08T13:19:02;12.30;;;8.10;;
9767;SDS011;4923;52.520;13.494;2024-03-08T13:21:50;17.75;;;8.63;;
9767;SDS011;4923;52.520;13.494;2024-03-08T13:24:36;10.77;;;7.95;;
9767;SDS011;4923;52.520;13.494;2024-03-08T13:27:23;20.75;;;9.30;;
9767;SDS011;4923;52.520;13.494;2024-03-08T13:30:10;12.40;;;8.40;;
9767;SDS011;4923;52.520;13.494;2024-03-08T13:32:59;15.27;;;8.32;;
9767;SDS011;4923;52.520;13.494;2024-03-08T13:35:47;12.50;;;7.50;;
9767;SDS011;4923;52.520;13.494;2024-03-08T13:38:35;13.52;;;8.32;;
9767;SDS011;4923;52.520;13.494;2024-03-08T13:41:22;14.13;;;8.70;;
9767;SDS011;4923;52.520;13.494;2024-03-08T13:44:10;11.32;;;8.00;;
9767;SDS011;4923;52.520;13.494;2024-03-08T13:46:56;11.80;;;7.63;;
9767;SDS011;4923;52.520;13.494;2024-03-08T13:49:44;16.02;;;9.38;;
9767;SDS011;4923;52.520;13.494;2024-03-08T13:52:32;13.05;;;7.95;;
9767;SDS011;4923;52.520;13.494;2024-03-08T13:55:20;14.60;;;8.70;;
9767;SDS011;4923;52.520;13.494;2024-03-08T13:58:07;12.77;;;8.20;;
9767;SDS011;4923;52.520;13.494;2024-03-08T14:00:55;13.32;;;7.38;;
9767;SDS011;4923;52.520;13.494;2024-03-08T14:03:42;20.25;;;8.35;;
9767;SDS011;4923;52.520;13.494;2024-03-08T14:06:29;13.80;;;7.95;;
9767;SDS011;4923;52.520;13.494;2024-03-08T14:09:17;12.30;;;8.32;;
9767;SDS011;4923;52.520;13.494;2024-03-08T14:12:04;15.05;;;10.10;;
9767;SDS011;4923;52.520;13.494;2024-03-08T14:14:52;14.75;;;9.43;;
9767;SDS011;4923;52.520;13.494;2024-03-08T14:17:39;14.52;;;8.38;;
9767;SDS011;4923;52.520;13.494;2024-03-08T14:20:26;17.98;;;9.32;;
9767;SDS011;4923;52.520;13.494;2024-03-08T14:23:13;12.02;;;7.80;;
9767;SDS011;4923;52.520;13.494;2024-03-08T14:26:02;14.50;;;9.00;;
9767;SDS011;4923;52.520;13.494;2024-03-08T14:28:49;10.65;;;7.82;;
9767;SDS011;4923;52.520;13.494;2024-03-08T14:31:39;13.20;;;9.25;;
9767;SDS011;4923;52.520;13.494;2024-03-08T14:34:26;14.80;;;8.75;;
9767;SDS011;4923;52.520;13.494;2024-03-08T14:37:14;15.95;;;9.38;;
9767;SDS011;4923;52.520;13.494;2024-03-08T14:40:03;11.95;;;7.97;;
9767;SDS011;4923;52.520;13.494;2024-03-08T14:42:52;11.52;;;7.70;;
9767;SDS011;4923;52.520;13.494;2024-03-08T14:45:39;7.93;;;6.95;;
9767;SDS011;4923;52.520;13.494;2024-03-08T14:48:27;11.25;;;7.05;;
9767;SDS011;4923;52.520;13.494;2024-03-08T14:51:14;9.40;;;6.45;;
9767;SDS011;4923;52.520;13.494;2024-03-08T14:54:01;8.25;;;6.80;;
9767;SDS011;4923;52.520;13.494;2024-03-08T14:56:51;7.57;;;6.07;;
9767;SDS011;4923;52.520;13.494;2024-03-08T14:59:42;11.85;;;6.15;;
9767;SDS011;4923;52.520;13.494;2024-03-08T15:02:30;6.22;;;5.53;;
9767;SDS011;4923;52.520;13.494;2024-03-08T15:05:17;8.18;;;5.88;;
9767;SDS011;4923;52.520;13.494;2024-03-08T15:08:06;10.48;;;6.00;;
9767;SDS011;4923;52.520;13.494;2024-03-08T15:10:55;8.48;;;5.75;;
9767;SDS011;4923;52.520;13.494;2024-03-08T15:13:44;9.27;;;6.50;;
9767;SDS011;4923;52.520;13.494;2024-03-08T15:16:33;9.60;;;6.30;;
9767;SDS011;4923;52.520;13.494;2024-03-08T15:19:20;8.77;;;6.55;;
9767;SDS011;4923;52.520;13.494;2024-03-08T15:22:07;9.38;;;6.15;;
9767;SDS011;4923;52.520;13.494;2024-03-08T15:24:55;8.10;;;6.07;;
9767;SDS011;4923;52.520;13.494;2024-03-08T15:27:43;8.48;;;5.53;;
9767;SDS011;4923;52.520;13.494;2024-03-08T15:30:30;6.97;;;5.07;;
9767;SDS011;4923;52.520;13.494;2024-03-08T15:33:20;10.63;;;6.60;;
9767;SDS011;4923;52.520;13.494;2024-03-08T15:36:09;5.53;;;5.03;;
9767;SDS011;4923;52.520;13.494;2024-03-08T15:38:59;7.22;;;5.82;;
9767;SDS011;4923;52.520;13.494;2024-03-08T15:41:47;12.38;;;7.10;;
9767;SDS011;4923;52.520;13.494;2024-03-08T15:44:34;8.25;;;6.75;;
9767;SDS011;4923;52.520;13.494;2024-03-08T15:47:21;11.35;;;6.55;;
9767;SDS011;4923;52.520;13.494;2024-03-08T15:50:12;8.45;;;5.50;;
9767;SDS011;4923;52.520;13.494;2024-03-08T15:52:59;7.65;;;6.15;;
9767;SDS011;4923;52.520;13.494;2024-03-08T15:55:46;7.70;;;6.75;;
9767;SDS011;4923;52.520;13.494;2024-03-08T15:58:34;8.23;;;6.38;;
9767;SDS011;4923;52.520;13.494;2024-03-08T16:01:21;9.52;;;6.82;;
9767;SDS011;4923;52.520;13.494;2024-03-08T16:04:10;10.25;;;6.68;;
9767;SDS011;4923;52.520;13.494;2024-03-08T16:06:58;7.78;;;6.32;;
9767;SDS011;4923;52.520;13.494;2024-03-08T16:09:45;10.73;;;6.57;;
9767;SDS011;4923;52.520;13.494;2024-03-08T16:12:34;13.93;;;7.28;;
9767;SDS011;4923;52.520;13.494;2024-03-08T16:15:21;9.10;;;5.70;;
9767;SDS011;4923;52.520;13.494;2024-03-08T16:18:08;13.30;;;7.72;;
9767;SDS011;4923;52.520;13.494;2024-03-08T16:20:55;7.55;;;6.30;;
9767;SDS011;4923;52.520;13.494;2024-03-08T16:23:44;7.60;;;6.13;;
9767;SDS011;4923;52.520;13.494;2024-03-08T16:26:31;6.93;;;6.22;;
9767;SDS011;4923;52.520;13.494;2024-03-08T16:29:20;9.90;;;7.00;;
9767;SDS011;4923;52.520;13.494;2024-03-08T16:32:07;12.05;;;6.60;;
9767;SDS011;4923;52.520;13.494;2024-03-08T16:34:54;7.50;;;6.25;;
9767;SDS011;4923;52.520;13.494;2024-03-08T16:37:40;7.70;;;5.93;;
9767;SDS011;4923;52.520;13.494;2024-03-08T16:40:29;6.88;;;5.70;;
9767;SDS011;4923;52.520;13.494;2024-03-08T16:43:16;8.35;;;6.20;;